createdAt,value
2022-11-04T00:01:47.171Z,99894.66
2022-11-04T00:04:22.309Z,99889.73
2022-11-04T00:06:57.179Z,99893.86
2022-11-04T00:09:31.853Z,99886.56
2022-11-04T00:12:22.555Z,99891.56
2022-11-04T00:14:58.172Z,99896.39
2022-11-04T00:17:31.205Z,99897.27
2022-11-04T00:20:22.218Z,99897.78
2022-11-04T00:23:12.586Z,99894.08
2022-11-04T00:26:02.850Z,99887.67
2022-11-04T00:28:44.316Z,99892.14
2022-11-04T00:31:34.583Z,99899.06
2022-11-04T00:34:07.715Z,99897.34
2022-11-04T00:36:40.778Z,99895.95
2022-11-04T00:39:13.412Z,99899.84
2022-11-04T00:41:46.373Z,99896.87
2022-11-04T00:44:19.284Z,99895.06
2022-11-04T00:46:52.413Z,99898.55
2022-11-04T00:49:25.221Z,99891.35
2022-11-04T00:51:57.944Z,99887.45
2022-11-04T00:54:30.663Z,99889.16
2022-11-04T00:57:03.511Z,99889.06
2022-11-04T00:59:36.198Z,99882.16
2022-11-04T01:02:11.170Z,99886.05
2022-11-04T01:04:44.228Z,99883.27
2022-11-04T01:07:16.945Z,99885.87
2022-11-04T01:09:51.214Z,99875.88
2022-11-04T01:12:23.039Z,99879.46
2022-11-04T01:14:55.462Z,99872.96
2022-11-04T01:17:28.297Z,99871.87
2022-11-04T01:20:01.100Z,99870.68
2022-11-04T01:22:34.283Z,99866.59
2022-11-04T01:25:07.996Z,99875.97
2022-11-04T01:27:41.081Z,99871.97
2022-11-04T01:30:14.456Z,99866.58
2022-11-04T01:32:47.143Z,99871.78
2022-11-04T01:35:20.029Z,99865.38
2022-11-04T01:37:53.352Z,99870.20
2022-11-04T01:40:26.642Z,99878.37
2022-11-04T01:42:59.449Z,99881.39
2022-11-04T01:45:32.614Z,99877.39
2022-11-04T01:48:10.081Z,99878.28
2022-11-04T01:50:43.136Z,99866.90
2022-11-04T01:53:19.846Z,99862.42
2022-11-04T01:55:58.573Z,99861.31
2022-11-04T01:58:35.943Z,99859.54
2022-11-04T02:01:10.906Z,99857.73
2022-11-04T02:03:56.911Z,99848.03
2022-11-04T02:06:29.725Z,99850.53
2022-11-04T02:09:02.595Z,99852.14
2022-11-04T02:11:54.033Z,99855.44
2022-11-04T02:14:26.687Z,99851.95
2022-11-04T02:17:12.914Z,99857.88
2022-11-04T02:20:13.240Z,99856.77
2022-11-04T02:23:13.028Z,99858.28
2022-11-04T02:26:16.507Z,99855.28
2022-11-04T02:29:25.520Z,99857.17
2022-11-04T02:32:14.886Z,99856.09
2022-11-04T02:35:09.899Z,99850.48
2022-11-04T02:37:48.067Z,99854.99
2022-11-04T02:41:04.608Z,99859.88
2022-11-04T02:44:08.596Z,99859.69
2022-11-04T02:47:00.545Z,99859.48
2022-11-04T02:49:52.563Z,99854.38
2022-11-04T02:53:02.621Z,99855.36
2022-11-04T02:55:41.725Z,99861.58
2022-11-04T02:58:19.176Z,99855.46
2022-11-04T03:00:53.691Z,99855.66
2022-11-04T03:03:34.149Z,99844.89
2022-11-04T03:06:09.799Z,99841.87
2022-11-04T03:08:52.718Z,99847.55
2022-11-04T03:11:27.548Z,99840.26
2022-11-04T03:14:12.083Z,99842.06
2022-11-04T03:16:51.180Z,99842.86
2022-11-04T03:19:58.526Z,99841.66
2022-11-04T03:22:34.406Z,99837.76
2022-11-04T03:25:09.416Z,99838.64
2022-11-04T03:27:49.557Z,99837.66
2022-11-04T03:30:24.221Z,99834.55
2022-11-04T03:33:07.422Z,99833.09
2022-11-04T03:35:40.515Z,99836.29
2022-11-04T03:38:13.969Z,99839.01
2022-11-04T03:40:46.959Z,99839.19
2022-11-04T03:43:28.172Z,99837.31
2022-11-04T03:46:00.953Z,99836.91
2022-11-04T03:48:34.161Z,99837.31
2022-11-04T03:51:07.158Z,99842.00
2022-11-04T03:53:40.061Z,99838.01
2022-11-04T03:56:37.889Z,99844.41
2022-11-04T03:59:27.013Z,99842.44
2022-11-04T04:02:28.450Z,99841.22
2022-11-04T04:05:37.542Z,99846.02
2022-11-04T04:08:23.708Z,99852.14
2022-11-04T04:11:16.149Z,99859.53
2022-11-04T04:14:05.316Z,99862.30
2022-11-04T04:16:47.270Z,99860.33
2022-11-04T04:19:23.872Z,99872.39
2022-11-04T04:22:04.318Z,99866.62
2022-11-04T04:24:57.186Z,99857.74
2022-11-04T04:27:32.118Z,99860.81
2022-11-04T04:30:13.963Z,99857.81
2022-11-04T04:33:13.511Z,99864.37
2022-11-04T04:35:51.050Z,99868.44
2022-11-04T04:38:47.023Z,99878.23
2022-11-04T04:41:50.498Z,99886.23
2022-11-04T04:44:47.815Z,99888.41
2022-11-04T04:47:23.848Z,99889.19
2022-11-04T04:50:01.517Z,99894.08
2022-11-04T04:52:38.484Z,99899.88
2022-11-04T04:55:12.329Z,99905.48
2022-11-04T04:57:46.145Z,99905.95
2022-11-04T05:00:22.297Z,99908.23
2022-11-04T05:02:55.090Z,99915.43
2022-11-04T05:05:28.129Z,99914.72
2022-11-04T05:08:09.325Z,99914.35
2022-11-04T05:10:42.448Z,99918.36
2022-11-04T05:13:29.768Z,99930.45
2022-11-04T05:16:11.156Z,99929.84
2022-11-04T05:18:44.275Z,99937.08
2022-11-04T05:21:18.255Z,99937.80
2022-11-04T05:23:52.068Z,99947.09
2022-11-04T05:26:24.910Z,99952.29
2022-11-04T05:28:57.970Z,99953.80
2022-11-04T05:31:31.308Z,99957.11
2022-11-04T05:34:05.988Z,99950.72
2022-11-04T05:36:39.458Z,99958.70
2022-11-04T05:39:15.083Z,99960.00
2022-11-04T05:41:47.923Z,99965.22
2022-11-04T05:44:21.007Z,99971.61
2022-11-04T05:46:54.001Z,99973.00
2022-11-04T05:49:26.907Z,99979.09
2022-11-04T05:51:59.690Z,99978.78
2022-11-04T05:54:32.658Z,99985.88
2022-11-04T05:57:05.930Z,99988.48
2022-11-04T05:59:39.348Z,99992.48
2022-11-04T06:02:12.140Z,99998.67
2022-11-04T06:04:45.809Z,100002.49
2022-11-04T06:07:18.565Z,100002.89
2022-11-04T06:09:51.478Z,100001.69
2022-11-04T06:12:24.490Z,100002.37
2022-11-04T06:14:58.026Z,100003.55
2022-11-04T06:17:31.189Z,99995.58
2022-11-04T06:20:04.364Z,99992.76
2022-11-04T06:22:37.812Z,99998.84
2022-11-04T06:25:11.335Z,100005.45
2022-11-04T06:27:44.684Z,100008.66
2022-11-04T06:30:17.847Z,99997.15
2022-11-04T06:32:50.915Z,99989.73
2022-11-04T06:35:23.974Z,99997.42
2022-11-04T06:37:57.706Z,100000.41
2022-11-04T06:40:31.322Z,99996.89
2022-11-04T06:43:03.990Z,99996.36
2022-11-04T06:45:37.965Z,99996.55
2022-11-04T06:48:10.875Z,99992.36
2022-11-04T06:50:43.845Z,99997.25
2022-11-04T06:53:16.590Z,99998.97
2022-11-04T06:55:49.731Z,100000.27
2022-11-04T06:58:22.870Z,100003.66
2022-11-04T07:00:56.616Z,100001.47
2022-11-04T07:03:30.511Z,100008.45
2022-11-04T07:06:09.921Z,100005.06
2022-11-04T07:08:43.135Z,100002.87
2022-11-04T07:11:16.767Z,100002.87
2022-11-04T07:13:50.861Z,100003.34
2022-11-04T07:16:24.428Z,100005.56
2022-11-04T07:18:57.776Z,100002.36
2022-11-04T07:21:31.029Z,100004.45
2022-11-04T07:24:04.412Z,100002.36
2022-11-04T07:26:37.402Z,100008.86
2022-11-04T07:29:11.470Z,100008.08
2022-11-04T07:31:46.116Z,100012.07
2022-11-04T07:34:18.952Z,100014.83
2022-11-04T07:36:51.732Z,100016.64
2022-11-04T07:39:25.262Z,100011.95
2022-11-04T07:41:59.587Z,100005.03
2022-11-04T07:44:32.622Z,100003.82
2022-11-04T07:47:05.671Z,100010.94
2022-11-04T07:49:39.158Z,100007.22
2022-11-04T07:52:12.802Z,100013.50
2022-11-04T07:54:45.582Z,100007.59
2022-11-04T07:57:18.711Z,100016.20
2022-11-04T07:59:51.808Z,100020.99
2022-11-04T08:02:28.634Z,100028.52
2022-11-04T08:04:58.965Z,100026.30
2022-11-04T08:07:31.886Z,100026.80
2022-11-04T08:10:05.794Z,100030.39
2022-11-04T08:12:38.795Z,100034.80
2022-11-04T08:15:12.713Z,100030.48
2022-11-04T08:17:45.771Z,100026.48
2022-11-04T08:20:19.330Z,100036.80
2022-11-04T08:22:52.229Z,100037.44
2022-11-04T08:25:25.079Z,100033.02
2022-11-04T08:28:00.856Z,100036.23
2022-11-04T08:30:32.691Z,100024.99
2022-11-04T08:33:06.689Z,100026.48
2022-11-04T08:35:41.534Z,100030.39
2022-11-04T08:38:15.202Z,100034.07
2022-11-04T08:40:48.660Z,100026.86
2022-11-04T08:43:21.791Z,100025.34
2022-11-04T08:45:55.752Z,100030.35
2022-11-04T08:48:30.225Z,100023.75
2022-11-04T08:51:03.397Z,100026.64
2022-11-04T08:53:36.556Z,100029.15
2022-11-04T08:56:21.351Z,100026.45
2022-11-04T08:58:54.810Z,100032.67
2022-11-04T09:01:32.765Z,100032.45
2022-11-04T09:04:04.203Z,100029.23
2022-11-04T09:06:41.691Z,100018.73
2022-11-04T09:09:18.071Z,100025.05
2022-11-04T09:11:50.788Z,100028.22
2022-11-04T09:14:25.297Z,100031.52
2022-11-04T09:17:00.381Z,100028.13
2022-11-04T09:19:33.884Z,100029.91
2022-11-04T09:22:06.842Z,100032.92
2022-11-04T09:24:39.742Z,100029.52
2022-11-04T09:27:12.510Z,100035.62
2022-11-04T09:29:45.443Z,100038.22
2022-11-04T09:32:18.501Z,100038.22
2022-11-04T09:34:51.564Z,100032.69
2022-11-04T09:37:25.555Z,100034.41
2022-11-04T09:39:59.175Z,100034.83
2022-11-04T09:43:14.563Z,100036.35
2022-11-04T09:45:47.946Z,100037.66
2022-11-04T09:48:31.977Z,100031.56
2022-11-04T09:51:12.910Z,100031.47
2022-11-04T09:53:53.442Z,100036.77
2022-11-04T09:56:32.656Z,100028.98
2022-11-04T09:59:06.856Z,100033.72
2022-11-04T10:02:00.007Z,100035.14
2022-11-04T10:04:49.230Z,100025.44
2022-11-04T10:07:48.245Z,100030.38
2022-11-04T10:10:40.515Z,100032.98
2022-11-04T10:13:52.954Z,100023.66
2022-11-04T13:07:16.368Z,100062.34
2022-11-04T13:09:55.551Z,100072.44
2022-11-04T13:12:44.613Z,100068.37
2022-11-04T13:15:26.983Z,100059.06
2022-11-04T13:18:04.965Z,100054.75
2022-11-04T13:21:00.703Z,100062.58
2022-11-04T13:24:04.612Z,100062.16
2022-11-04T13:26:38.179Z,100062.35
2022-11-04T13:29:15.480Z,100064.77
2022-11-04T13:32:12.680Z,100064.34
2022-11-04T13:35:05.076Z,100069.66
2022-11-04T13:37:51.685Z,100060.63
2022-11-04T13:40:34.985Z,100064.00
2022-11-04T13:43:37.769Z,100064.71
2022-11-04T13:46:20.979Z,100064.49
2022-11-04T13:49:13.778Z,100068.59
2022-11-04T13:52:11.327Z,100075.29
2022-11-04T13:54:57.554Z,100072.17
2022-11-04T13:57:43.750Z,100072.08
2022-11-04T14:00:23.728Z,100073.59
2022-11-04T14:03:00.516Z,100071.12
2022-11-04T14:05:39.664Z,100081.42
2022-11-04T14:08:17.180Z,100083.14
2022-11-04T14:10:55.705Z,100084.03
2022-11-04T14:13:38.307Z,100079.62
2022-11-04T14:16:30.432Z,100079.31
2022-11-04T14:19:24.440Z,100089.72
2022-11-04T14:22:08.589Z,100091.72
2022-11-04T14:24:44.439Z,100093.33
2022-11-04T14:27:39.401Z,100096.72
2022-11-04T14:30:26.050Z,100105.73
2022-11-04T14:33:03.008Z,100102.73
2022-11-04T14:35:36.941Z,100101.75
2022-11-04T14:38:28.977Z,100105.06
2022-11-04T14:41:22.308Z,100103.55
2022-11-04T14:43:57.264Z,100109.95
2022-11-04T14:46:35.530Z,100106.45
2022-11-04T14:49:11.483Z,100107.34
2022-11-04T14:51:45.330Z,100113.44
2022-11-04T14:54:25.777Z,100115.86
2022-11-04T14:57:20.728Z,100114.14
2022-11-04T14:59:54.086Z,100112.96
2022-11-04T15:02:31.800Z,100113.78
2022-11-04T15:05:05.434Z,100110.27
2022-11-04T15:07:41.587Z,100117.17
2022-11-04T15:10:27.945Z,100123.16
2022-11-04T15:13:03.821Z,100119.88
2022-11-04T15:15:43.823Z,100118.67
2022-11-04T15:18:28.265Z,100114.47
2022-11-04T15:21:01.434Z,100113.78
2022-11-04T15:23:50.092Z,100109.88
2022-11-04T15:26:33.650Z,100110.86
2022-11-04T15:29:12.359Z,100116.17
2022-11-04T15:32:04.696Z,100123.25
2022-11-04T15:34:38.226Z,100117.26
2022-11-04T15:37:11.792Z,100123.86
2022-11-04T15:39:48.039Z,100129.75
2022-11-04T15:42:39.362Z,100131.47
2022-11-04T15:45:31.782Z,100134.86
2022-11-04T15:48:31.152Z,100137.48
2022-11-04T15:51:22.556Z,100144.37
2022-11-04T15:54:05.566Z,100144.58
2022-11-04T15:56:46.026Z,100143.77
2022-11-04T15:59:26.407Z,100141.89
2022-11-04T16:02:00.043Z,100146.67
2022-11-04T16:04:34.032Z,100143.19
2022-11-04T16:07:14.799Z,100147.77
2022-11-04T16:09:54.812Z,100146.88
2022-11-04T16:12:32.710Z,100151.88
2022-11-04T16:15:06.014Z,100149.48
2022-11-04T16:17:44.220Z,100156.67
2022-11-04T16:20:19.991Z,100150.86
2022-11-04T16:23:00.892Z,100156.58
2022-11-04T16:25:36.168Z,100156.16
2022-11-04T16:28:19.259Z,100149.28
2022-11-04T16:31:03.645Z,100156.98
2022-11-04T16:33:36.702Z,100156.06
2022-11-04T16:36:30.959Z,100157.26
2022-11-04T16:39:07.759Z,100150.28
2022-11-04T16:41:42.623Z,100152.57
2022-11-04T16:44:23.218Z,100153.77
2022-11-04T16:46:57.481Z,100151.16
2022-11-04T16:49:29.484Z,100150.06
2022-11-04T16:52:07.346Z,100155.27
2022-11-04T16:54:40.528Z,100153.28
2022-11-04T16:57:15.715Z,100151.88
2022-11-04T16:59:49.092Z,100153.28
2022-11-04T17:02:33.572Z,100159.06
2022-11-04T17:05:06.697Z,100163.89
2022-11-04T17:07:53.268Z,100160.78
2022-11-04T17:10:22.762Z,100165.27
2022-11-04T17:12:55.725Z,100170.77
2022-11-04T17:15:29.579Z,100167.18
2022-11-04T17:18:02.653Z,100164.27
2022-11-04T17:20:35.638Z,100167.77
2022-11-04T17:23:09.161Z,100168.69
2022-11-04T17:25:43.718Z,100170.09
2022-11-04T17:28:17.009Z,100161.26
2022-11-04T17:30:50.593Z,100164.38
2022-11-04T17:33:24.027Z,100163.38
2022-11-04T17:35:57.660Z,100157.98
2022-11-04T17:38:31.055Z,100158.97
2022-11-04T17:41:23.211Z,100157.67
2022-11-04T17:44:01.901Z,100158.59
2022-11-04T17:46:38.294Z,100163.86
2022-11-04T17:49:15.298Z,100167.77
2022-11-04T17:51:53.934Z,100158.87
2022-11-04T17:54:31.474Z,100160.78
2022-11-04T17:57:04.741Z,100160.58
2022-11-04T17:59:37.702Z,100157.26
2022-11-04T18:02:11.235Z,100162.87
2022-11-04T18:04:45.826Z,100160.27
2022-11-04T18:07:19.557Z,100151.44
2022-11-04T18:09:53.132Z,100151.44
2022-11-04T18:12:41.155Z,100157.36
2022-11-04T18:15:17.938Z,100158.77
2022-11-04T18:17:52.628Z,100160.64
2022-11-04T18:20:25.710Z,100162.77
2022-11-04T18:23:00.514Z,100160.54
2022-11-04T18:25:33.803Z,100146.24
2022-11-04T18:28:07.306Z,100147.75
2022-11-04T18:30:42.008Z,100147.55
2022-11-04T18:33:15.164Z,100143.06
2022-11-04T18:35:49.216Z,100135.36
2022-11-04T18:38:22.887Z,100131.73
2022-11-04T18:40:57.633Z,100132.77
2022-11-04T18:43:30.862Z,100146.65
2022-11-04T18:46:10.725Z,100157.92
2022-11-04T18:48:46.225Z,100147.11
2022-11-04T18:51:22.252Z,100153.82
2022-11-04T18:53:55.649Z,100157.52
2022-11-04T18:56:28.455Z,100159.13
2022-11-04T18:59:02.290Z,100157.62
2022-11-04T19:01:36.687Z,100156.84
2022-11-04T19:04:10.434Z,100159.34
2022-11-04T19:06:45.739Z,100154.14
2022-11-04T19:09:45.462Z,100159.34
2022-11-04T19:11:55.148Z,100167.71
2022-11-04T19:14:28.999Z,100167.13
2022-11-04T19:17:03.972Z,100165.83
2022-11-04T19:19:37.222Z,100162.72
2022-11-04T19:22:11.877Z,100173.52
2022-11-04T19:24:46.300Z,100182.72
2022-11-04T19:27:21.870Z,100182.99
2022-11-04T19:29:55.434Z,100185.01
2022-11-04T19:32:28.663Z,100189.00
2022-11-04T19:35:01.495Z,100188.68
2022-11-04T19:37:34.550Z,100195.45
2022-11-04T19:40:10.561Z,100190.45
2022-11-04T19:43:01.523Z,100189.25
2022-11-04T19:45:34.541Z,100186.87
2022-11-04T19:48:08.777Z,100185.78
2022-11-04T19:50:44.892Z,100186.30
2022-11-04T19:53:18.952Z,100182.66
2022-11-04T19:55:55.468Z,100187.76
2022-11-04T19:58:28.462Z,100187.38
2022-11-04T20:01:08.948Z,100184.38
2022-11-04T20:03:44.855Z,100189.57
2022-11-04T20:06:19.642Z,100193.98
2022-11-04T20:08:53.466Z,100199.66
2022-11-04T20:11:26.489Z,100199.97
2022-11-04T20:14:04.744Z,100197.94
2022-11-04T20:16:36.796Z,100194.64
2022-11-04T20:19:10.953Z,100192.72
2022-11-04T20:21:44.496Z,100196.32
2022-11-04T20:24:18.104Z,100196.42
2022-11-04T20:26:51.673Z,100193.05
2022-11-04T20:29:24.798Z,100191.06
2022-11-04T20:31:58.732Z,100189.66
2022-11-04T20:34:33.183Z,100192.05
2022-11-04T20:37:06.805Z,100194.64
2022-11-04T20:39:40.051Z,100190.23
2022-11-04T20:42:12.993Z,100185.14
2022-11-04T20:44:46.451Z,100183.95
2022-11-04T20:47:19.999Z,100181.25
2022-11-04T20:49:53.125Z,100185.14
2022-11-04T20:52:26.578Z,100186.44
2022-11-04T20:55:01.206Z,100186.95
2022-11-04T20:57:35.612Z,100185.25
2022-11-04T21:00:10.965Z,100189.93
2022-11-04T21:02:45.247Z,100192.42
2022-11-04T21:05:18.610Z,100194.23
2022-11-04T21:07:52.745Z,100189.77
2022-11-04T21:10:25.626Z,100185.87
2022-11-04T21:12:58.829Z,100185.56
2022-11-04T21:15:44.506Z,100185.67
2022-11-04T21:18:17.928Z,100192.95
2022-11-04T21:20:52.583Z,100189.87
2022-11-04T21:23:24.979Z,100186.87
2022-11-04T21:26:07.157Z,100189.16
2022-11-04T21:28:40.161Z,100185.67
2022-11-04T21:31:14.247Z,100182.45
2022-11-04T21:33:47.328Z,100191.06
2022-11-04T21:36:20.799Z,100183.06
2022-11-04T21:38:53.943Z,100185.45
2022-11-04T21:41:30.213Z,100187.64
2022-11-04T21:44:06.175Z,100175.95
2022-11-04T21:46:40.271Z,100170.23
2022-11-04T21:49:14.336Z,100167.16
2022-11-04T21:51:47.393Z,100170.95
2022-11-04T21:54:21.104Z,100164.75
2022-11-04T21:56:54.030Z,100164.12
2022-11-04T21:59:27.100Z,100170.11
2022-11-04T22:02:00.861Z,100170.52
2022-11-04T22:04:33.887Z,100173.52
2022-11-04T22:07:07.367Z,100175.03
2022-11-04T22:09:40.459Z,100174.33
2022-11-04T22:12:13.929Z,100166.13
2022-11-04T22:14:47.165Z,100170.43
2022-11-04T22:17:19.959Z,100170.43
2022-11-04T22:19:53.992Z,100168.34
2022-11-04T22:22:27.119Z,100169.34
2022-11-04T22:25:07.972Z,100175.16
2022-11-04T22:27:41.523Z,100170.06
2022-11-04T22:30:15.354Z,100172.87
2022-11-04T22:32:48.732Z,100174.18
2022-11-04T22:35:22.282Z,100165.87
2022-11-04T22:37:54.857Z,100169.04
2022-11-04T22:40:27.683Z,100170.13
2022-11-04T22:43:00.612Z,100167.83
2022-11-04T22:45:33.892Z,100171.31
2022-11-04T22:48:07.339Z,100176.63
2022-11-04T22:50:40.508Z,100177.13
2022-11-04T22:53:13.492Z,100173.34
2022-11-04T22:55:46.862Z,100175.05
2022-11-04T22:58:20.961Z,100172.45
2022-11-04T23:00:59.986Z,100174.23
2022-11-04T23:03:33.460Z,100176.05
2022-11-04T23:06:08.173Z,100174.55
2022-11-04T23:08:42.567Z,100172.58
2022-11-04T23:11:42.855Z,100172.68
2022-11-04T23:14:36.119Z,100173.41
2022-11-04T23:17:38.925Z,100182.09
2022-11-04T23:20:18.481Z,100175.90
2022-11-04T23:23:11.964Z,100177.58
2022-11-04T23:25:45.028Z,100181.88
2022-11-04T23:28:36.004Z,100185.38
2022-11-04T23:31:08.702Z,100186.30
2022-11-04T23:33:59.765Z,100187.70
2022-11-04T23:36:50.638Z,100187.19
2022-11-04T23:39:23.451Z,100183.28
2022-11-04T23:42:14.092Z,100183.50
2022-11-04T23:45:14.213Z,100183.60
2022-11-04T23:48:07.418Z,100191.50
2022-11-04T23:50:58.535Z,100192.70
2022-11-04T23:53:49.190Z,100191.50
2022-11-04T23:56:39.441Z,100189.90
2022-11-04T23:59:35.495Z,100187.92
